sensor_id;sensor_type;location;lat;lon;timestamp;pressure;altitude;pressure_sealevel;temperature;humidity
60240;BME280;46102;39.012;-7.064;2024-03-02T00:01:26;98442.78;;;10.15;100.00
60240;BME280;46102;39.012;-7.064;2024-03-02T00:03:27;98441.38;;;10.18;100.00
60240;BME280;46102;39.012;-7.064;2024-03-02T00:05:28;98433.28;;;10.21;100.00
60240;BME280;46102;39.012;-7.064;2024-03-02T00:07:29;98434.09;;;10.22;100.00
60240;BME280;46102;39.012;-7.064;2024-03-02T00:09:30;98430.06;;;10.19;100.00
60240;BME280;46102;39.012;-7.064;2024-03-02T00:11:34;98436.84;;;10.22;100.00
60240;BME280;46102;39.012;-7.064;2024-03-02T00:13:36;98422.81;;;10.24;100.00
60240;BME280;46102;39.012;-7.064;2024-03-02T00:17:45;98432.00;;;10.19;100.00
60240;BME280;46102;39.012;-7.064;2024-03-02T00:19:46;98428.16;;;10.20;100.00
60240;BME280;46102;39.012;-7.064;2024-03-02T00:21:47;98437.66;;;10.23;100.00
60240;BME280;46102;39.012;-7.064;2024-03-02T00:23:48;98435.25;;;10.21;100.00
60240;BME280;46102;39.012;-7.064;2024-03-02T00:25:53;98445.22;;;10.17;100.00
60240;BME280;46102;39.012;-7.064;2024-03-02T00:27:55;98442.16;;;10.18;100.00
60240;BME280;46102;39.012;-7.064;2024-03-02T00:29:55;98442.47;;;10.17;100.00
60240;BME280;46102;39.012;-7.064;2024-03-02T00:31:57;98430.72;;;10.16;100.00
60240;BME280;46102;39.012;-7.064;2024-03-02T00:34:00;98430.22;;;10.14;100.00
60240;BME280;46102;39.012;-7.064;2024-03-02T00:36:03;98421.50;;;10.12;100.00
60240;BME280;46102;39.012;-7.064;2024-03-02T00:38:05;98418.44;;;10.14;100.00
60240;BME280;46102;39.012;-7.064;2024-03-02T00:40:08;98414.22;;;10.08;100.00
60240;BME280;46102;39.012;-7.064;2024-03-02T00:42:10;98414.88;;;10.05;100.00
60240;BME280;46102;39.012;-7.064;2024-03-02T00:44:12;98413.59;;;10.11;100.00
60240;BME280;46102;39.012;-7.064;2024-03-02T00:46:15;98413.91;;;10.09;100.00
60240;BME280;46102;39.012;-7.064;2024-03-02T00:48:16;98414.03;;;10.04;100.00
60240;BME280;46102;39.012;-7.064;2024-03-02T00:50:17;98403.22;;;9.99;100.00
60240;BME280;46102;39.012;-7.064;2024-03-02T00:52:18;98400.34;;;10.04;100.00
60240;BME280;46102;39.012;-7.064;2024-03-02T00:54:21;98390.50;;;10.03;100.00
60240;BME280;46102;39.012;-7.064;2024-03-02T00:56:23;98396.78;;;10.04;100.00
60240;BME280;46102;39.012;-7.064;2024-03-02T00:58:24;98410.50;;;10.04;100.00
60240;BME280;46102;39.012;-7.064;2024-03-02T01:00:25;98402.78;;;10.06;100.00
60240;BME280;46102;39.012;-7.064;2024-03-02T01:02:25;98396.31;;;10.01;100.00
60240;BME280;46102;39.012;-7.064;2024-03-02T01:04:27;98398.09;;;9.97;100.00
60240;BME280;46102;39.012;-7.064;2024-03-02T01:06:27;98394.84;;;9.95;100.00
60240;BME280;46102;39.012;-7.064;2024-03-02T01:08:28;98394.84;;;9.95;100.00
60240;BME280;46102;39.012;-7.064;2024-03-02T01:10:29;98407.22;;;9.93;100.00
60240;BME280;46102;39.012;-7.064;2024-03-02T01:12:30;98395.63;;;9.87;100.00
60240;BME280;46102;39.012;-7.064;2024-03-02T01:14:31;98390.63;;;9.89;100.00
60240;BME280;46102;39.012;-7.064;2024-03-02T01:16:31;98389.00;;;9.88;100.00
60240;BME280;46102;39.012;-7.064;2024-03-02T01:18:32;98390.94;;;9.88;100.00
60240;BME280;46102;39.012;-7.064;2024-03-02T01:20:33;98384.84;;;9.91;100.00
60240;BME280;46102;39.012;-7.064;2024-03-02T01:22:34;98394.16;;;9.90;100.00
60240;BME280;46102;39.012;-7.064;2024-03-02T01:24:34;98385.47;;;9.88;100.00
60240;BME280;46102;39.012;-7.064;2024-03-02T01:26:35;98377.25;;;9.88;100.00
60240;BME280;46102;39.012;-7.064;2024-03-02T01:28:36;98377.69;;;9.81;100.00
60240;BME280;46102;39.012;-7.064;2024-03-02T01:30:36;98383.16;;;9.81;100.00
60240;BME280;46102;39.012;-7.064;2024-03-02T01:32:38;98383.97;;;9.82;100.00
60240;BME280;46102;39.012;-7.064;2024-03-02T01:34:39;98367.41;;;9.87;100.00
60240;BME280;46102;39.012;-7.064;2024-03-02T01:36:39;98369.66;;;9.85;100.00
60240;BME280;46102;39.012;-7.064;2024-03-02T01:38:40;98369.34;;;9.86;100.00
60240;BME280;46102;39.012;-7.064;2024-03-02T01:40:41;98372.91;;;9.87;100.00
60240;BME280;46102;39.012;-7.064;2024-03-02T01:42:44;98372.41;;;9.85;100.00
60240;BME280;46102;39.012;-7.064;2024-03-02T01:44:45;98368.38;;;9.82;100.00
60240;BME280;46102;39.012;-7.064;2024-03-02T01:46:46;98367.53;;;9.82;100.00
60240;BME280;46102;39.012;-7.064;2024-03-02T01:48:47;98360.16;;;9.82;100.00
60240;BME280;46102;39.012;-7.064;2024-03-02T01:50:48;98360.63;;;9.84;100.00
60240;BME280;46102;39.012;-7.064;2024-03-02T01:52:49;98359.19;;;9.87;100.00
60240;BME280;46102;39.012;-7.064;2024-03-02T01:54:49;98356.56;;;9.82;100.00
60240;BME280;46102;39.012;-7.064;2024-03-02T01:56:50;98357.41;;;9.82;100.00
60240;BME280;46102;39.012;-7.064;2024-03-02T01:58:51;98351.59;;;9.84;100.00
60240;BME280;46102;39.012;-7.064;2024-03-02T02:00:52;98350.63;;;9.88;100.00
60240;BME280;46102;39.012;-7.064;2024-03-02T02:02:53;98346.00;;;9.89;100.00
60240;BME280;46102;39.012;-7.064;2024-03-02T02:04:54;98348.38;;;9.90;100.00
60240;BME280;46102;39.012;-7.064;2024-03-02T02:06:55;98346.94;;;9.93;100.00
60240;BME280;46102;39.012;-7.064;2024-03-02T02:08:55;98331.34;;;9.93;100.00
60240;BME280;46102;39.012;-7.064;2024-03-02T02:10:56;98334.88;;;9.94;100.00
60240;BME280;46102;39.012;-7.064;2024-03-02T02:12:57;98332.94;;;9.94;100.00
60240;BME280;46102;39.012;-7.064;2024-03-02T02:14:58;98318.13;;;9.95;100.00
60240;BME280;46102;39.012;-7.064;2024-03-02T02:16:59;98325.84;;;9.93;100.00
60240;BME280;46102;39.012;-7.064;2024-03-02T02:19:00;98322.78;;;9.95;100.00
60240;BME280;46102;39.012;-7.064;2024-03-02T02:21:01;98317.13;;;9.91;100.00
60240;BME280;46102;39.012;-7.064;2024-03-02T02:23:05;98315.50;;;9.90;100.00
60240;BME280;46102;39.012;-7.064;2024-03-02T02:25:08;98316.34;;;9.91;100.00
60240;BME280;46102;39.012;-7.064;2024-03-02T02:27:09;98312.28;;;9.88;100.00
60240;BME280;46102;39.012;-7.064;2024-03-02T02:29:10;98315.50;;;9.90;100.00
60240;BME280;46102;39.012;-7.064;2024-03-02T02:31:11;98306.47;;;9.90;100.00
60240;BME280;46102;39.012;-7.064;2024-03-02T02:33:12;98308.09;;;9.82;100.00
60240;BME280;46102;39.012;-7.064;2024-03-02T02:35:12;98308.09;;;9.82;100.00
60240;BME280;46102;39.012;-7.064;2024-03-02T02:37:13;98307.91;;;9.78;100.00
60240;BME280;46102;39.012;-7.064;2024-03-02T02:39:16;98308.69;;;9.70;100.00
60240;BME280;46102;39.012;-7.064;2024-03-02T02:41:19;98297.41;;;9.72;100.00
60240;BME280;46102;39.012;-7.064;2024-03-02T02:43:20;98301.09;;;9.67;100.00
60240;BME280;46102;39.012;-7.064;2024-03-02T02:45:20;98302.25;;;9.66;100.00
60240;BME280;46102;39.012;-7.064;2024-03-02T02:47:21;98294.97;;;9.70;100.00
60240;BME280;46102;39.012;-7.064;2024-03-02T02:49:22;98285.94;;;9.61;100.00
60240;BME280;46102;39.012;-7.064;2024-03-02T02:51:22;98285.63;;;9.63;100.00
60240;BME280;46102;39.012;-7.064;2024-03-02T02:53:25;98283.19;;;9.61;100.00
60240;BME280;46102;39.012;-7.064;2024-03-02T02:55:26;98283.53;;;9.59;100.00
60240;BME280;46102;39.012;-7.064;2024-03-02T02:57:27;98277.38;;;9.54;100.00
60240;BME280;46102;39.012;-7.064;2024-03-02T02:59:30;98274.63;;;9.54;100.00
60240;BME280;46102;39.012;-7.064;2024-03-02T03:01:31;98275.72;;;9.44;100.00
60240;BME280;46102;39.012;-7.064;2024-03-02T03:03:32;98275.72;;;9.44;100.00
60240;BME280;46102;39.012;-7.064;2024-03-02T03:05:32;98265.53;;;9.36;100.00
60240;BME280;46102;39.012;-7.064;2024-03-02T03:07:34;98273.44;;;9.37;100.00
60240;BME280;46102;39.012;-7.064;2024-03-02T03:09:37;98265.06;;;9.34;100.00
60240;BME280;46102;39.012;-7.064;2024-03-02T03:11:40;98256.03;;;9.33;100.00
60240;BME280;46102;39.012;-7.064;2024-03-02T03:13:41;98251.50;;;9.29;100.00
60240;BME280;46102;39.012;-7.064;2024-03-02T03:15:42;98245.38;;;9.23;100.00
60240;BME280;46102;39.012;-7.064;2024-03-02T03:17:43;98240.38;;;9.25;100.00
60240;BME280;46102;39.012;-7.064;2024-03-02T03:19:43;98242.31;;;9.25;100.00
60240;BME280;46102;39.012;-7.064;2024-03-02T03:21:44;98237.34;;;9.27;100.00
60240;BME280;46102;39.012;-7.064;2024-03-02T03:23:45;98243.09;;;9.25;100.00
60240;BME280;46102;39.012;-7.064;2024-03-02T03:25:45;98235.53;;;9.22;100.00
60240;BME280;46102;39.012;-7.064;2024-03-02T03:27:46;98234.91;;;9.25;100.00
60240;BME280;46102;39.012;-7.064;2024-03-02T03:29:47;98226.22;;;9.23;100.00
60240;BME280;46102;39.012;-7.064;2024-03-02T03:31:48;98226.34;;;9.18;100.00
60240;BME280;46102;39.012;-7.064;2024-03-02T03:33:48;98239.53;;;9.16;100.00
60240;BME280;46102;39.012;-7.064;2024-03-02T03:35:49;98219.41;;;9.12;100.00
60240;BME280;46102;39.012;-7.064;2024-03-02T03:37:50;98226.59;;;8.99;100.00
60240;BME280;46102;39.012;-7.064;2024-03-02T03:39:51;98219.00;;;8.96;100.00
60240;BME280;46102;39.012;-7.064;2024-03-02T03:41:52;98222.81;;;8.86;100.00
60240;BME280;46102;39.012;-7.064;2024-03-02T03:43:52;98215.25;;;8.83;100.00
60240;BME280;46102;39.012;-7.064;2024-03-02T03:45:53;98214.44;;;8.83;100.00
60240;BME280;46102;39.012;-7.064;2024-03-02T03:47:54;98208.47;;;8.81;100.00
60240;BME280;46102;39.012;-7.064;2024-03-02T03:49:55;98203.00;;;8.81;100.00
60240;BME280;46102;39.012;-7.064;2024-03-02T03:51:56;98200.88;;;8.78;100.00
60240;BME280;46102;39.012;-7.064;2024-03-02T03:53:56;98202.63;;;8.73;100.00
60240;BME280;46102;39.012;-7.064;2024-03-02T03:55:57;98192.31;;;8.70;100.00
60240;BME280;46102;39.012;-7.064;2024-03-02T03:57:58;98198.44;;;8.67;100.00
60240;BME280;46102;39.012;-7.064;2024-03-02T03:59:59;98204.66;;;8.59;100.00
60240;BME280;46102;39.012;-7.064;2024-03-02T04:02:00;98207.50;;;8.54;100.00
60240;BME280;46102;39.012;-7.064;2024-03-02T04:04:01;98204.41;;;8.47;100.00
60240;BME280;46102;39.012;-7.064;2024-03-02T04:06:04;98200.84;;;8.46;100.00
60240;BME280;46102;39.012;-7.064;2024-03-02T04:08:04;98189.63;;;8.48;100.00
60240;BME280;46102;39.012;-7.064;2024-03-02T04:10:10;98188.97;;;8.51;100.00
60240;BME280;46102;39.012;-7.064;2024-03-02T04:12:11;98192.84;;;8.50;100.00
60240;BME280;46102;39.012;-7.064;2024-03-02T04:14:13;98189.31;;;8.49;100.00
60240;BME280;46102;39.012;-7.064;2024-03-02T04:16:14;98192.84;;;8.50;100.00
60240;BME280;46102;39.012;-7.064;2024-03-02T04:18:15;98183.22;;;8.52;100.00
60240;BME280;46102;39.012;-7.064;2024-03-02T04:20:16;98190.47;;;8.57;100.00
60240;BME280;46102;39.012;-7.064;2024-03-02T04:22:17;98185.81;;;8.58;100.00
60240;BME280;46102;39.012;-7.064;2024-03-02T04:24:17;98184.06;;;8.62;100.00
60240;BME280;46102;39.012;-7.064;2024-03-02T04:26:18;98187.78;;;8.66;100.00
60240;BME280;46102;39.012;-7.064;2024-03-02T04:28:22;98178.47;;;8.67;100.00
60240;BME280;46102;39.012;-7.064;2024-03-02T04:30:23;98172.63;;;8.60;100.00
60240;BME280;46102;39.012;-7.064;2024-03-02T04:32:24;98182.09;;;8.53;100.00
60240;BME280;46102;39.012;-7.064;2024-03-02T04:34:24;98176.44;;;8.50;100.00
60240;BME280;46102;39.012;-7.064;2024-03-02T04:36:25;98160.03;;;8.50;100.00
60240;BME280;46102;39.012;-7.064;2024-03-02T04:38:26;98151.25;;;8.39;100.00
60240;BME280;46102;39.012;-7.064;2024-03-02T04:40:26;98163.31;;;8.38;100.00
60240;BME280;46102;39.012;-7.064;2024-03-02T04:42:27;98168.03;;;8.46;100.00
60240;BME280;46102;39.012;-7.064;2024-03-02T04:44:28;98164.56;;;8.54;100.00
60240;BME280;46102;39.012;-7.064;2024-03-02T04:46:29;98159.16;;;8.63;100.00
60240;BME280;46102;39.012;-7.064;2024-03-02T04:48:29;98160.94;;;8.68;100.00
60240;BME280;46102;39.012;-7.064;2024-03-02T04:50:30;98152.09;;;8.71;100.00
60240;BME280;46102;39.012;-7.064;2024-03-02T04:52:31;98154.22;;;8.74;100.00
60240;BME280;46102;39.012;-7.064;2024-03-02T04:54:31;98161.44;;;8.70;100.00
60240;BME280;46102;39.012;-7.064;2024-03-02T04:56:32;98150.06;;;8.77;100.00
60240;BME280;46102;39.012;-7.064;2024-03-02T04:58:33;98152.47;;;8.78;100.00
60240;BME280;46102;39.012;-7.064;2024-03-02T05:00:34;98144.88;;;8.75;100.00
60240;BME280;46102;39.012;-7.064;2024-03-02T05:02:35;98139.25;;;8.80;100.00
60240;BME280;46102;39.012;-7.064;2024-03-02T05:04:36;98137.47;;;8.75;100.00
60240;BME280;46102;39.012;-7.064;2024-03-02T05:06:41;98133.63;;;8.77;100.00
60240;BME280;46102;39.012;-7.064;2024-03-02T05:08:41;98115.09;;;8.73;100.00
60240;BME280;46102;39.012;-7.064;2024-03-02T05:10:42;98123.16;;;8.70;100.00
60240;BME280;46102;39.012;-7.064;2024-03-02T05:12:43;98135.03;;;8.65;100.00
60240;BME280;46102;39.012;-7.064;2024-03-02T05:14:44;98136.13;;;8.64;100.00
60240;BME280;46102;39.012;-7.064;2024-03-02T05:16:45;98129.56;;;8.65;100.00
60240;BME280;46102;39.012;-7.064;2024-03-02T05:18:46;98131.50;;;8.65;100.00
60240;BME280;46102;39.012;-7.064;2024-03-02T05:20:46;98122.66;;;8.68;100.00
60240;BME280;46102;39.012;-7.064;2024-03-02T05:22:48;98123.66;;;8.72;100.00
60240;BME280;46102;39.012;-7.064;2024-03-02T05:24:50;98116.72;;;8.74;100.00
60240;BME280;46102;39.012;-7.064;2024-03-02T05:26:51;98125.88;;;8.70;100.00
60240;BME280;46102;39.012;-7.064;2024-03-02T05:28:51;98126.66;;;8.62;100.00
60240;BME280;46102;39.012;-7.064;2024-03-02T05:30:52;98115.34;;;8.54;100.00
60240;BME280;46102;39.012;-7.064;2024-03-02T05:32:53;98123.25;;;8.56;100.00
60240;BME280;46102;39.012;-7.064;2024-03-02T05:34:53;98117.78;;;8.56;100.00
60240;BME280;46102;39.012;-7.064;2024-03-02T05:36:55;98117.44;;;8.58;100.00
60240;BME280;46102;39.012;-7.064;2024-03-02T05:38:56;98115.22;;;8.60;100.00
60240;BME280;46102;39.012;-7.064;2024-03-02T05:40:57;98116.50;;;8.53;100.00
60240;BME280;46102;39.012;-7.064;2024-03-02T05:42:57;98114.22;;;8.55;100.00
60240;BME280;46102;39.012;-7.064;2024-03-02T05:44:58;98104.28;;;8.60;100.00
60240;BME280;46102;39.012;-7.064;2024-03-02T05:46:59;98112.97;;;8.62;100.00
60240;BME280;46102;39.012;-7.064;2024-03-02T05:49:00;98106.50;;;8.58;100.00
60240;BME280;46102;39.012;-7.064;2024-03-02T05:51:01;98104.28;;;8.60;100.00
60240;BME280;46102;39.012;-7.064;2024-03-02T05:53:02;98105.09;;;8.60;100.00
60240;BME280;46102;39.012;-7.064;2024-03-02T05:55:03;98097.50;;;8.57;100.00
60240;BME280;46102;39.012;-7.064;2024-03-02T05:57:04;98093.94;;;8.48;100.00
60240;BME280;46102;39.012;-7.064;2024-03-02T05:59:17;98095.50;;;8.40;100.00
60240;BME280;46102;39.012;-7.064;2024-03-02T06:01:18;98093.84;;;8.39;100.00
60240;BME280;46102;39.012;-7.064;2024-03-02T06:03:18;98087.69;;;8.25;100.00
60240;BME280;46102;39.012;-7.064;2024-03-02T06:05:19;98087.31;;;8.18;100.00
60240;BME280;46102;39.012;-7.064;2024-03-02T06:07:20;98085.69;;;8.17;100.00
60240;BME280;46102;39.012;-7.064;2024-03-02T06:09:21;98084.88;;;8.16;100.00
60240;BME280;46102;39.012;-7.064;2024-03-02T06:11:23;98091.50;;;8.15;100.00
60240;BME280;46102;39.012;-7.064;2024-03-02T06:13:25;98079.72;;;8.14;100.00
60240;BME280;46102;39.012;-7.064;2024-03-02T06:15:26;98087.13;;;8.14;100.00
60240;BME280;46102;39.012;-7.064;2024-03-02T06:17:27;98084.09;;;8.16;100.00
60240;BME280;46102;39.012;-7.064;2024-03-02T06:19:28;98080.22;;;8.17;100.00
60240;BME280;46102;39.012;-7.064;2024-03-02T06:21:29;98081.53;;;8.19;100.00
60240;BME280;46102;39.012;-7.064;2024-03-02T06:23:30;98086.38;;;8.22;100.00
60240;BME280;46102;39.012;-7.064;2024-03-02T06:25:31;98084.16;;;8.24;100.00
60240;BME280;46102;39.012;-7.064;2024-03-02T06:27:31;98081.84;;;8.18;100.00
60240;BME280;46102;39.012;-7.064;2024-03-02T06:29:33;98085.13;;;8.06;100.00
60240;BME280;46102;39.012;-7.064;2024-03-02T06:31:34;98091.66;;;7.96;100.00
60240;BME280;46102;39.012;-7.064;2024-03-02T06:33:35;98083.97;;;7.98;100.00
60240;BME280;46102;39.012;-7.064;2024-03-02T06:35:36;98072.13;;;8.03;100.00
60240;BME280;46102;39.012;-7.064;2024-03-02T06:37:38;98080.38;;;8.11;100.00
60240;BME280;46102;39.012;-7.064;2024-03-02T06:39:40;98067.06;;;8.19;100.00
60240;BME280;46102;39.012;-7.064;2024-03-02T06:41:40;98062.34;;;8.10;100.00
60240;BME280;46102;39.012;-7.064;2024-03-02T06:43:42;98062.69;;;8.09;100.00
60240;BME280;46102;39.012;-7.064;2024-03-02T06:45:43;98065.34;;;8.00;100.00
60240;BME280;46102;39.012;-7.064;2024-03-02T06:47:44;98074.22;;;8.06;100.00
60240;BME280;46102;39.012;-7.064;2024-03-02T06:49:45;98073.25;;;8.02;100.00
60240;BME280;46102;39.012;-7.064;2024-03-02T06:51:45;98067.38;;;7.95;100.00
60240;BME280;46102;39.012;-7.064;2024-03-02T06:53:46;98068.72;;;7.97;100.00
60240;BME280;46102;39.012;-7.064;2024-03-02T06:55:47;98068.72;;;7.97;100.00
60240;BME280;46102;39.012;-7.064;2024-03-02T06:57:48;98064.41;;;8.05;100.00
60240;BME280;46102;39.012;-7.064;2024-03-02T06:59:48;98053.69;;;8.08;100.00
60240;BME280;46102;39.012;-7.064;2024-03-02T07:01:51;98055.78;;;8.11;100.00
60240;BME280;46102;39.012;-7.064;2024-03-02T07:03:52;98062.53;;;8.14;100.00
60240;BME280;46102;39.012;-7.064;2024-03-02T07:05:53;98064.47;;;8.13;100.00
60240;BME280;46102;39.012;-7.064;2024-03-02T07:07:53;98063.03;;;8.16;100.00
60240;BME280;46102;39.012;-7.064;2024-03-02T07:09:54;98076.56;;;8.21;100.00
60240;BME280;46102;39.012;-7.064;2024-03-02T07:11:55;98065.63;;;8.21;100.00
60240;BME280;46102;39.012;-7.064;2024-03-02T07:13:56;98065.63;;;8.21;100.00
60240;BME280;46102;39.012;-7.064;2024-03-02T07:15:56;98071.09;;;8.21;100.00
60240;BME280;46102;39.012;-7.064;2024-03-02T07:18:20;98068.72;;;8.28;100.00
60240;BME280;46102;39.012;-7.064;2024-03-02T07:20:20;98066.13;;;8.23;100.00
60240;BME280;46102;39.012;-7.064;2024-03-02T07:22:22;98058.41;;;8.25;100.00
60240;BME280;46102;39.012;-7.064;2024-03-02T07:24:23;98054.88;;;8.25;100.00
60240;BME280;46102;39.012;-7.064;2024-03-02T07:26:24;98050.53;;;8.24;100.00
60240;BME280;46102;39.012;-7.064;2024-03-02T07:28:26;98066.63;;;8.25;100.00
60240;BME280;46102;39.012;-7.064;2024-03-02T07:30:27;98063.88;;;8.25;100.00
60240;BME280;46102;39.012;-7.064;2024-03-02T07:32:28;98064.56;;;8.31;100.00
60240;BME280;46102;39.012;-7.064;2024-03-02T07:34:29;98070.03;;;8.31;100.00
60240;BME280;46102;39.012;-7.064;2024-03-02T07:36:29;98073.72;;;8.35;100.00
60240;BME280;46102;39.012;-7.064;2024-03-02T07:38:30;98067.78;;;8.33;100.00
60240;BME280;46102;39.012;-7.064;2024-03-02T07:40:32;98066.84;;;8.38;100.00
60240;BME280;46102;39.012;-7.064;2024-03-02T07:42:32;98065.44;;;8.40;100.00
60240;BME280;46102;39.012;-7.064;2024-03-02T07:44:33;98060.47;;;8.42;100.00
60240;BME280;46102;39.012;-7.064;2024-03-02T07:46:34;98058.41;;;8.48;100.00
60240;BME280;46102;39.012;-7.064;2024-03-02T07:48:35;98057.59;;;8.47;100.00
60240;BME280;46102;39.012;-7.064;2024-03-02T07:50:36;98058.59;;;8.51;100.00
60240;BME280;46102;39.012;-7.064;2024-03-02T07:52:37;98051.34;;;8.55;100.00
60240;BME280;46102;39.012;-7.064;2024-03-02T07:54:38;98059.22;;;8.57;100.00
60240;BME280;46102;39.012;-7.064;2024-03-02T07:56:39;98061.34;;;8.69;100.00
60240;BME280;46102;39.012;-7.064;2024-03-02T07:58:40;98059.34;;;8.83;100.00
60240;BME280;46102;39.012;-7.064;2024-03-02T08:00:42;98055.03;;;9.00;100.00
60240;BME280;46102;39.012;-7.064;2024-03-02T08:02:43;98054.88;;;9.13;100.00
60240;BME280;46102;39.012;-7.064;2024-03-02T08:04:44;98050.06;;;9.10;100.00
60240;BME280;46102;39.012;-7.064;2024-03-02T08:06:46;98052.78;;;9.10;100.00
60240;BME280;46102;39.012;-7.064;2024-03-02T08:08:47;98057.63;;;9.13;100.00
60240;BME280;46102;39.012;-7.064;2024-03-02T08:10:48;98052.47;;;9.29;100.00
60240;BME280;46102;39.012;-7.064;2024-03-02T08:12:49;98060.41;;;9.40;100.00
60240;BME280;46102;39.012;-7.064;2024-03-02T08:14:50;98056.34;;;9.54;100.00
60240;BME280;46102;39.012;-7.064;2024-03-02T08:16:51;98053.00;;;9.66;100.00
60240;BME280;46102;39.012;-7.064;2024-03-02T08:18:52;98059.59;;;9.74;100.00
60240;BME280;46102;39.012;-7.064;2024-03-02T08:20:54;98060.06;;;9.85;100.00
60240;BME280;46102;39.012;-7.064;2024-03-02T08:22:54;98061.34;;;9.96;100.00
60240;BME280;46102;39.012;-7.064;2024-03-02T08:24:55;98050.84;;;10.07;100.00
60240;BME280;46102;39.012;-7.064;2024-03-02T08:26:56;98052.91;;;10.18;100.00
60240;BME280;46102;39.012;-7.064;2024-03-02T08:29:00;98047.41;;;10.27;100.00
60240;BME280;46102;39.012;-7.064;2024-03-02T08:31:02;98046.75;;;10.39;100.00
60240;BME280;46102;39.012;-7.064;2024-03-02T08:33:03;98045.09;;;10.47;100.00
60240;BME280;46102;39.012;-7.064;2024-03-02T08:35:05;98039.28;;;10.48;100.00
60240;BME280;46102;39.012;-7.064;2024-03-02T08:37:06;98034.38;;;10.62;100.00
60240;BME280;46102;39.012;-7.064;2024-03-02T08:39:08;98043.84;;;10.74;100.00
60240;BME280;46102;39.012;-7.064;2024-03-02T08:41:15;98042.53;;;10.80;100.00
60240;BME280;46102;39.012;-7.064;2024-03-02T08:43:17;98050.44;;;10.81;100.00
60240;BME280;46102;39.012;-7.064;2024-03-02T08:45:18;98029.22;;;10.91;100.00
60240;BME280;46102;39.012;-7.064;2024-03-02T08:47:20;98032.72;;;11.00;100.00
60240;BME280;46102;39.012;-7.064;2024-03-02T08:49:21;98033.56;;;10.92;100.00
60240;BME280;46102;39.012;-7.064;2024-03-02T08:51:22;98025.28;;;11.00;100.00
60240;BME280;46102;39.012;-7.064;2024-03-02T08:53:23;98027.78;;;11.14;100.00
60240;BME280;46102;39.012;-7.064;2024-03-02T08:55:23;98029.00;;;11.25;100.00
60240;BME280;46102;39.012;-7.064;2024-03-02T08:57:24;98021.16;;;11.36;100.00
60240;BME280;46102;39.012;-7.064;2024-03-02T08:59:25;98009.44;;;11.48;100.00
60240;BME280;46102;39.012;-7.064;2024-03-02T09:01:28;98024.28;;;11.68;100.00
60240;BME280;46102;39.012;-7.064;2024-03-02T09:03:29;98005.59;;;11.82;100.00
60240;BME280;46102;39.012;-7.064;2024-03-02T09:05:29;98009.88;;;11.92;100.00
60240;BME280;46102;39.012;-7.064;2024-03-02T09:07:30;98020.19;;;11.95;100.00
60240;BME280;46102;39.012;-7.064;2024-03-02T09:09:31;98010.72;;;12.05;100.00
60240;BME280;46102;39.012;-7.064;2024-03-02T09:11:32;98006.44;;;11.95;100.00
60240;BME280;46102;39.012;-7.064;2024-03-02T09:13:33;98002.66;;;12.00;100.00
60240;BME280;46102;39.012;-7.064;2024-03-02T09:15:34;97982.31;;;12.13;100.00
60240;BME280;46102;39.012;-7.064;2024-03-02T09:17:37;97993.53;;;12.08;100.00
60240;BME280;46102;39.012;-7.064;2024-03-02T09:19:39;97988.97;;;12.12;100.00
60240;BME280;46102;39.012;-7.064;2024-03-02T09:21:41;97991.94;;;12.07;100.00
60240;BME280;46102;39.012;-7.064;2024-03-02T09:23:42;97983.00;;;12.22;100.00
60240;BME280;46102;39.012;-7.064;2024-03-02T09:25:45;97986.81;;;12.30;100.00
60240;BME280;46102;39.012;-7.064;2024-03-02T09:27:45;97986.25;;;12.49;100.00
60240;BME280;46102;39.012;-7.064;2024-03-02T09:29:46;97987.31;;;12.57;100.00
60240;BME280;46102;39.012;-7.064;2024-03-02T09:31:47;97977.22;;;12.36;100.00
60240;BME280;46102;39.012;-7.064;2024-03-02T09:33:48;97979.63;;;12.50;100.00
60240;BME280;46102;39.012;-7.064;2024-03-02T09:35:49;97987.19;;;12.41;100.00
60240;BME280;46102;39.012;-7.064;2024-03-02T09:37:50;97980.75;;;12.61;100.00
60240;BME280;46102;39.012;-7.064;2024-03-02T09:39:51;97984.66;;;12.73;100.00
60240;BME280;46102;39.012;-7.064;2024-03-02T09:41:53;97980.28;;;12.71;97.53
60240;BME280;46102;39.012;-7.064;2024-03-02T09:43:54;97972.41;;;12.70;98.42
60240;BME280;46102;39.012;-7.064;2024-03-02T09:45:55;97965.03;;;12.86;96.28
60240;BME280;46102;39.012;-7.064;2024-03-02T09:47:56;97978.97;;;13.06;94.00
60240;BME280;46102;39.012;-7.064;2024-03-02T09:49:57;97988.72;;;13.03;92.24
60240;BME280;46102;39.012;-7.064;2024-03-02T09:51:58;97976.09;;;13.15;94.51
60240;BME280;46102;39.012;-7.064;2024-03-02T09:54:00;97969.31;;;13.12;93.44
60240;BME280;46102;39.012;-7.064;2024-03-02T09:56:01;97968.41;;;13.20;91.39
60240;BME280;46102;39.012;-7.064;2024-03-02T09:58:03;97963.72;;;13.08;91.60
60240;BME280;46102;39.012;-7.064;2024-03-02T10:00:04;97974.94;;;13.28;92.90
60240;BME280;46102;39.012;-7.064;2024-03-02T10:02:07;97969.75;;;13.26;88.39
60240;BME280;46102;39.012;-7.064;2024-03-02T10:04:08;97970.25;;;13.16;87.00
60240;BME280;46102;39.012;-7.064;2024-03-02T10:06:25;97952.25;;;13.06;84.39
60240;BME280;46102;39.012;-7.064;2024-03-02T10:08:26;97963.03;;;13.11;86.64
60240;BME280;46102;39.012;-7.064;2024-03-02T10:10:42;97955.22;;;13.13;84.51
60240;BME280;46102;39.012;-7.064;2024-03-02T10:12:44;97959.94;;;13.13;81.72
60240;BME280;46102;39.012;-7.064;2024-03-02T10:14:45;97957.63;;;13.15;82.91
60240;BME280;46102;39.012;-7.064;2024-03-02T10:16:46;97957.19;;;13.01;82.32
60240;BME280;46102;39.012;-7.064;2024-03-02T10:18:47;97963.47;;;13.13;80.42
60240;BME280;46102;39.012;-7.064;2024-03-02T10:20:48;97949.25;;;13.11;79.23
60240;BME280;46102;39.012;-7.064;2024-03-02T10:22:49;97937.31;;;13.07;78.95
60240;BME280;46102;39.012;-7.064;2024-03-02T10:24:49;97938.44;;;13.19;79.47
60240;BME280;46102;39.012;-7.064;2024-03-02T10:26:51;97934.06;;;13.30;79.89
60240;BME280;46102;39.012;-7.064;2024-03-02T10:28:52;97939.75;;;13.49;79.31
60240;BME280;46102;39.012;-7.064;2024-03-02T10:30:59;97935.00;;;13.62;76.28
60240;BME280;46102;39.012;-7.064;2024-03-02T10:33:01;97946.44;;;13.64;74.13
60240;BME280;46102;39.012;-7.064;2024-03-02T10:35:02;97935.88;;;13.66;74.11